createdAt,value
2023-03-17T00:01:06.694Z,6.40
2023-03-17T00:03:44.443Z,6.40
2023-03-17T00:06:27.875Z,6.40
2023-03-17T00:09:02.211Z,6.40
2023-03-17T00:11:34.663Z,6.40
2023-03-17T00:14:06.842Z,6.40
2023-03-17T00:16:42.365Z,6.40
2023-03-17T00:19:18.191Z,6.30
2023-03-17T00:22:01.024Z,6.30
2023-03-17T00:24:34.603Z,6.30
2023-03-17T00:27:13.704Z,6.30
2023-03-17T00:29:46.958Z,6.20
2023-03-17T00:32:22.032Z,6.20
2023-03-17T00:34:53.955Z,6.20
2023-03-17T00:37:26.653Z,6.30
2023-03-17T00:40:00.590Z,6.30
2023-03-17T00:42:33.681Z,6.30
2023-03-17T00:45:06.552Z,6.30
2023-03-17T00:47:40.371Z,6.30
2023-03-17T00:50:25.467Z,6.30
2023-03-17T00:52:59.149Z,6.30
2023-03-17T00:55:38.670Z,6.30
2023-03-17T00:58:33.467Z,6.30
2023-03-17T01:01:05.748Z,6.30
2023-03-17T01:03:40.379Z,6.30
2023-03-17T01:06:14.746Z,6.30
2023-03-17T01:08:47.469Z,6.30
2023-03-17T01:11:20.400Z,6.30
2023-03-17T01:13:53.837Z,6.20
2023-03-17T01:16:26.931Z,6.30
2023-03-17T01:19:00.175Z,6.20
2023-03-17T01:21:32.690Z,6.20
2023-03-17T01:24:05.316Z,6.30
2023-03-17T01:26:37.937Z,6.30
2023-03-17T01:29:10.140Z,6.20
2023-03-17T01:31:42.683Z,6.20
2023-03-17T01:34:15.122Z,6.30
2023-03-17T01:36:49.827Z,6.30
2023-03-17T01:39:22.059Z,6.30
2023-03-17T01:41:56.992Z,6.30
2023-03-17T01:44:30.779Z,6.30
2023-03-17T01:47:02.962Z,6.30
2023-03-17T01:49:38.775Z,6.30
2023-03-17T01:52:20.561Z,6.20
2023-03-17T01:55:07.169Z,6.20
2023-03-17T01:57:46.381Z,6.20
2023-03-17T02:00:24.951Z,6.20
2023-03-17T02:02:57.653Z,6.20
2023-03-17T02:05:31.585Z,6.10
2023-03-17T02:08:12.726Z,6.10
2023-03-17T02:10:49.369Z,6.20
2023-03-17T02:13:22.088Z,6.10
2023-03-17T02:15:54.492Z,6.20
2023-03-17T02:18:27.984Z,6.10
2023-03-17T02:21:28.103Z,6.10
2023-03-17T02:24:15.612Z,6.00
2023-03-17T02:27:01.039Z,6.00
2023-03-17T02:29:46.274Z,5.90
2023-03-17T02:32:19.743Z,5.80
2023-03-17T02:34:52.183Z,5.80
2023-03-17T02:37:24.402Z,5.70
2023-03-17T02:39:56.960Z,5.70
2023-03-17T02:42:49.150Z,5.60
2023-03-17T02:45:21.584Z,5.50
2023-03-17T02:47:55.991Z,5.50
2023-03-17T02:50:29.680Z,5.50
2023-03-17T02:53:02.142Z,5.40
2023-03-17T02:55:34.156Z,5.60
2023-03-17T02:58:06.424Z,5.50
2023-03-17T03:00:40.522Z,5.60
2023-03-17T03:03:12.614Z,5.50
2023-03-17T03:05:44.571Z,5.60
2023-03-17T03:08:17.768Z,5.60
2023-03-17T03:10:50.054Z,5.50
2023-03-17T03:13:23.106Z,5.50
2023-03-17T03:15:55.207Z,5.40
2023-03-17T03:18:27.306Z,5.40
2023-03-17T03:20:59.838Z,5.50
2023-03-17T03:23:32.442Z,5.50
2023-03-17T03:26:04.929Z,5.50
2023-03-17T03:28:37.332Z,5.50
2023-03-17T03:31:09.613Z,5.50
2023-03-17T03:33:42.983Z,5.50
2023-03-17T03:36:15.036Z,5.50
2023-03-17T03:38:47.052Z,5.40
2023-03-17T03:41:19.114Z,5.40
2023-03-17T03:43:51.904Z,5.40
2023-03-17T03:46:46.871Z,5.30
2023-03-17T03:49:19.006Z,5.30
2023-03-17T03:51:52.056Z,5.30
2023-03-17T03:54:24.801Z,5.30
2023-03-17T03:56:57.321Z,5.30
2023-03-17T03:59:30.540Z,5.20
2023-03-17T04:02:02.603Z,5.20
2023-03-17T04:04:35.087Z,5.20
2023-03-17T04:07:08.273Z,5.10
2023-03-17T04:09:40.654Z,5.00
2023-03-17T04:12:13.423Z,5.00
2023-03-17T04:14:46.959Z,5.00
2023-03-17T04:17:18.975Z,4.90
2023-03-17T04:19:51.315Z,4.90
2023-03-17T04:22:23.278Z,4.90
2023-03-17T04:24:55.723Z,4.90
2023-03-17T04:27:28.472Z,4.90
2023-03-17T04:30:01.737Z,4.80
2023-03-17T04:32:36.057Z,4.80
2023-03-17T04:35:12.707Z,4.80
2023-03-17T04:37:46.971Z,4.80
2023-03-17T04:40:20.767Z,4.80
2023-03-17T04:42:52.916Z,4.80
2023-03-17T04:45:25.435Z,4.70
2023-03-17T04:47:57.593Z,4.70
2023-03-17T04:50:30.029Z,4.60
2023-03-17T04:53:04.062Z,4.60
2023-03-17T04:55:36.623Z,4.50
2023-03-17T04:58:10.340Z,4.60
2023-03-17T05:00:43.868Z,4.50
2023-03-17T05:03:31.693Z,4.40
2023-03-17T05:06:05.282Z,4.60
2023-03-17T05:08:38.110Z,4.60
2023-03-17T05:11:10.951Z,4.60
2023-03-17T05:13:43.857Z,4.60
2023-03-17T05:16:16.365Z,4.60
2023-03-17T05:18:48.647Z,4.60
2023-03-17T05:21:21.190Z,4.70
2023-03-17T05:23:54.978Z,4.70
2023-03-17T05:26:27.184Z,4.70
2023-03-17T05:28:59.280Z,4.60
2023-03-17T05:31:32.202Z,4.60
2023-03-17T05:34:05.583Z,4.60
2023-03-17T05:36:37.970Z,4.50
2023-03-17T05:39:10.205Z,4.50
2023-03-17T05:41:42.779Z,4.50
2023-03-17T05:44:16.469Z,4.50
2023-03-17T05:46:48.763Z,4.50
2023-03-17T05:49:21.073Z,4.50
2023-03-17T05:51:53.076Z,4.40
2023-03-17T05:54:25.971Z,4.40
2023-03-17T05:56:58.423Z,4.40
2023-03-17T05:59:30.491Z,4.50
2023-03-17T06:02:03.259Z,4.50
2023-03-17T06:04:35.626Z,4.50
2023-03-17T06:07:09.535Z,4.60
2023-03-17T06:09:43.825Z,4.60
2023-03-17T06:12:16.301Z,4.60
2023-03-17T06:14:48.331Z,4.60
2023-03-17T06:17:20.392Z,4.70
2023-03-17T06:19:52.483Z,4.70
2023-03-17T06:22:24.603Z,4.70
2023-03-17T06:24:57.076Z,4.80
2023-03-17T06:27:29.305Z,4.90
2023-03-17T06:30:01.623Z,5.00
2023-03-17T06:32:35.342Z,5.00
2023-03-17T06:35:07.903Z,5.20
2023-03-17T06:37:49.671Z,5.20
2023-03-17T06:40:22.281Z,5.30
2023-03-17T06:42:54.813Z,5.40
2023-03-17T06:45:28.120Z,5.50
2023-03-17T06:48:00.425Z,5.60
2023-03-17T06:50:33.304Z,5.60
2023-03-17T06:53:05.695Z,5.80
2023-03-17T06:55:38.025Z,6.10
2023-03-17T06:58:10.580Z,6.80
2023-03-17T07:00:45.534Z,7.50
2023-03-17T07:03:21.812Z,8.10
2023-03-17T07:05:54.784Z,8.90
2023-03-17T07:08:30.374Z,9.40
2023-03-17T07:11:04.621Z,9.60
2023-03-17T07:13:38.811Z,9.80
2023-03-17T07:16:15.183Z,10.20
2023-03-17T07:18:50.697Z,10.70
2023-03-17T07:21:22.877Z,10.90
2023-03-17T07:23:55.188Z,10.90
2023-03-17T07:26:27.375Z,10.90
2023-03-17T07:29:01.384Z,11.10
2023-03-17T07:31:33.953Z,11.20
2023-03-17T07:34:09.158Z,11.30
2023-03-17T07:36:41.737Z,11.30
2023-03-17T07:39:14.124Z,11.20
2023-03-17T07:41:48.456Z,11.20
2023-03-17T07:44:26.303Z,11.20
2023-03-17T07:46:59.012Z,11.30
2023-03-17T07:49:41.164Z,11.40
2023-03-17T07:52:13.782Z,11.40
2023-03-17T07:54:45.884Z,11.40
2023-03-17T07:57:18.370Z,11.50
2023-03-17T07:59:51.415Z,11.60
2023-03-17T08:02:24.469Z,11.80
2023-03-17T08:04:57.721Z,12.10
2023-03-17T08:07:31.730Z,12.50
2023-03-17T08:10:07.669Z,13.10
2023-03-17T08:12:41.746Z,14.10
2023-03-17T08:15:14.900Z,14.90
2023-03-17T08:17:48.115Z,15.30
2023-03-17T08:20:20.796Z,15.90
2023-03-17T08:22:52.945Z,16.20
2023-03-17T08:25:25.385Z,15.90
2023-03-17T08:27:58.124Z,15.70
2023-03-17T08:30:33.579Z,15.40
2023-03-17T08:33:08.466Z,15.20
2023-03-17T08:35:42.714Z,15.30
2023-03-17T08:38:14.990Z,15.30
2023-03-17T08:40:47.263Z,15.20
2023-03-17T08:43:21.443Z,14.90
2023-03-17T08:46:02.515Z,14.90
2023-03-17T08:48:39.853Z,15.20
2023-03-17T08:51:12.901Z,15.20
2023-03-17T08:53:48.697Z,15.10
2023-03-17T08:56:22.968Z,15.30
2023-03-17T08:58:55.879Z,15.40
2023-03-17T09:01:29.524Z,15.60
2023-03-17T09:04:04.119Z,15.70
2023-03-17T09:06:38.805Z,15.80
2023-03-17T09:09:13.619Z,15.80
2023-03-17T09:11:45.983Z,15.60
2023-03-17T09:14:18.255Z,15.50
2023-03-17T09:16:51.043Z,15.50
2023-03-17T09:19:23.867Z,15.60
2023-03-17T09:21:57.225Z,15.70
2023-03-17T09:24:29.621Z,15.70
2023-03-17T09:27:04.418Z,15.70
2023-03-17T09:29:36.817Z,15.60
2023-03-17T09:32:09.661Z,15.50
2023-03-17T09:34:42.253Z,15.50
2023-03-17T09:37:15.058Z,15.60
2023-03-17T09:39:47.639Z,15.60
2023-03-17T09:42:22.824Z,15.70
2023-03-17T09:46:07.370Z,15.70
2023-03-17T09:49:04.290Z,15.80
2023-03-17T09:51:50.027Z,15.80
2023-03-17T09:54:39.126Z,15.80
2023-03-17T09:57:29.842Z,15.90
2023-03-17T10:00:15.239Z,16.00
2023-03-17T10:02:52.139Z,16.00
2023-03-17T10:05:28.608Z,16.10
2023-03-17T10:08:30.165Z,16.20
2023-03-17T10:11:35.595Z,16.40
2023-03-17T10:14:35.717Z,16.50
2023-03-17T10:17:28.594Z,16.60
2023-03-17T10:20:24.539Z,16.60
2023-03-17T10:23:10.104Z,16.70
2023-03-17T10:25:44.768Z,16.60
2023-03-17T10:28:29.790Z,16.60
2023-03-17T10:31:14.049Z,16.50
2023-03-17T10:33:55.176Z,16.40
2023-03-17T10:36:42.774Z,16.50
2023-03-17T10:39:21.743Z,16.50
2023-03-17T10:41:57.128Z,16.40
2023-03-17T10:45:13.628Z,16.50
2023-03-17T10:48:04.870Z,16.50
2023-03-17T10:50:42.336Z,16.60
2023-03-17T10:53:28.459Z,16.80
2023-03-17T10:57:08.914Z,17.00
2023-03-17T10:59:49.946Z,17.10
2023-03-17T11:02:43.238Z,17.50
2023-03-17T11:05:29.538Z,17.70
2023-03-17T11:08:17.248Z,18.00
2023-03-17T11:10:57.445Z,18.20
2023-03-17T11:13:31.038Z,18.20
2023-03-17T11:16:24.069Z,18.30
2023-03-17T11:18:59.953Z,18.30
2023-03-17T11:21:47.011Z,18.40
2023-03-17T11:24:41.628Z,18.50
2023-03-17T11:27:37.521Z,18.50
2023-03-17T11:30:41.648Z,18.60
2023-03-17T11:33:34.889Z,18.60
2023-03-17T11:36:46.624Z,18.60
2023-03-17T11:39:41.466Z,18.60
2023-03-17T11:42:53.749Z,18.70
2023-03-17T11:46:16.534Z,18.70
2023-03-17T11:49:38.101Z,18.80
2023-03-17T11:52:32.905Z,18.90
2023-03-17T11:55:31.350Z,19.00
2023-03-17T11:58:45.082Z,19.20
2023-03-17T12:02:16.350Z,19.50
2023-03-17T12:05:17.471Z,19.70
2023-03-17T12:08:05.393Z,19.90
2023-03-17T12:10:55.801Z,20.00
2023-03-17T12:13:40.322Z,19.90
2023-03-17T12:16:44.147Z,19.90
2023-03-17T12:19:39.941Z,19.90
2023-03-17T12:22:42.841Z,20.00
2023-03-17T12:25:51.846Z,20.10
2023-03-17T12:29:09.490Z,19.90
2023-03-17T12:31:56.446Z,19.90
2023-03-17T12:34:49.071Z,19.90
2023-03-17T12:37:28.396Z,20.00
2023-03-17T12:40:58.121Z,20.10
2023-03-17T12:44:11.557Z,20.20
2023-03-17T12:47:12.398Z,20.30
2023-03-17T12:50:53.735Z,20.30
2023-03-17T12:53:46.523Z,20.30
2023-03-17T12:56:32.612Z,20.40
2023-03-17T12:59:09.013Z,20.30
2023-03-17T13:02:29.988Z,20.20
2023-03-17T13:05:13.839Z,20.20
2023-03-17T13:07:57.448Z,20.30
2023-03-17T13:10:42.880Z,20.20
2023-03-17T13:13:46.108Z,20.20
2023-03-17T13:16:41.326Z,20.20
2023-03-17T13:19:18.766Z,20.20
2023-03-17T13:22:03.529Z,20.20
2023-03-17T13:25:26.811Z,20.30
2023-03-17T13:28:47.724Z,20.40
2023-03-17T13:31:29.293Z,20.40
2023-03-17T13:34:18.201Z,20.40
2023-03-17T13:37:16.534Z,20.40
2023-03-17T13:40:35.882Z,20.50
2023-03-17T13:44:00.523Z,20.50
2023-03-17T13:46:54.436Z,20.50
2023-03-17T13:50:21.701Z,20.50
2023-03-17T13:53:10.440Z,20.50
2023-03-17T13:56:09.021Z,20.50
2023-03-17T13:59:05.610Z,20.60
2023-03-17T14:02:01.439Z,20.60
2023-03-17T14:04:57.600Z,20.60
2023-03-17T14:07:49.499Z,20.50
2023-03-17T14:10:34.389Z,20.60
2023-03-17T14:13:18.997Z,20.50
2023-03-17T14:16:08.094Z,20.60
2023-03-17T14:18:57.577Z,20.50
2023-03-17T14:21:48.744Z,20.40
2023-03-17T14:24:21.515Z,20.40
2023-03-17T14:26:56.925Z,20.40
2023-03-17T14:29:38.325Z,20.40
2023-03-17T14:36:14.357Z,20.50
2023-03-17T14:38:54.010Z,20.70
2023-03-17T14:41:29.261Z,20.80
2023-03-17T14:44:09.120Z,20.80
2023-03-17T14:46:42.157Z,20.70
2023-03-17T14:49:21.459Z,20.70
2023-03-17T14:52:02.875Z,20.60
2023-03-17T14:54:36.217Z,20.60
2023-03-17T14:57:14.345Z,20.40
2023-03-17T14:59:59.988Z,20.30
2023-03-17T15:02:58.095Z,20.20
2023-03-17T15:05:40.555Z,20.10
2023-03-17T15:08:36.562Z,20.00
2023-03-17T15:11:40.855Z,20.00
2023-03-17T15:14:35.380Z,20.00
2023-03-17T15:17:22.666Z,20.00
2023-03-17T15:20:06.009Z,20.10
2023-03-17T15:22:49.277Z,20.00
2023-03-17T15:25:43.478Z,20.00
2023-03-17T15:28:20.818Z,19.90
2023-03-17T15:31:12.603Z,19.90
2023-03-17T15:33:46.253Z,19.90
2023-03-17T15:36:31.888Z,19.80
2023-03-17T15:39:06.765Z,19.80
2023-03-17T15:41:40.512Z,19.70
2023-03-17T15:44:12.960Z,19.70
2023-03-17T15:46:46.245Z,19.60
2023-03-17T15:49:18.576Z,19.60
2023-03-17T15:51:52.457Z,19.40
2023-03-17T15:54:24.844Z,19.40
2023-03-17T15:56:57.108Z,19.30
2023-03-17T15:59:29.717Z,19.30
2023-03-17T16:02:02.786Z,19.20
2023-03-17T16:04:52.815Z,19.20
2023-03-17T16:07:26.561Z,19.00
2023-03-17T16:10:00.026Z,19.00
2023-03-17T16:12:32.507Z,18.90
2023-03-17T16:15:13.206Z,18.90
2023-03-17T16:17:58.574Z,18.80
2023-03-17T16:20:38.653Z,18.80
2023-03-17T16:23:24.305Z,18.70
2023-03-17T16:26:13.587Z,18.70
2023-03-17T16:28:50.673Z,18.60
2023-03-17T16:31:27.133Z,18.50
2023-03-17T16:34:01.959Z,18.40
2023-03-17T16:36:34.703Z,18.30
2023-03-17T16:39:14.959Z,18.20
2023-03-17T16:42:34.972Z,18.10
2023-03-17T16:45:22.194Z,18.00
2023-03-17T16:48:01.238Z,17.80
2023-03-17T16:50:35.066Z,17.70
2023-03-17T16:53:08.049Z,17.60
2023-03-17T16:55:41.689Z,17.50
2023-03-17T16:58:15.513Z,17.30
2023-03-17T17:00:54.119Z,17.20
2023-03-17T17:03:31.628Z,17.10
2023-03-17T17:06:06.042Z,16.90
2023-03-17T17:08:38.612Z,16.80
2023-03-17T17:11:14.682Z,16.80
2023-03-17T17:13:49.469Z,16.60
2023-03-17T17:16:31.987Z,16.50
2023-03-17T17:19:18.155Z,16.50
2023-03-17T17:21:50.828Z,16.40
2023-03-17T17:24:23.117Z,16.30
2023-03-17T17:26:55.385Z,16.20
2023-03-17T17:29:27.453Z,16.10
2023-03-17T17:31:59.699Z,16.10
2023-03-17T17:34:31.817Z,15.90
2023-03-17T17:37:04.800Z,15.90
2023-03-17T17:39:40.633Z,15.80
2023-03-17T17:42:12.990Z,15.70
2023-03-17T17:44:45.797Z,15.70
2023-03-17T17:47:18.950Z,15.70
2023-03-17T17:49:51.377Z,15.60
2023-03-17T17:52:23.594Z,15.50
2023-03-17T17:54:57.657Z,15.50
2023-03-17T17:57:31.019Z,15.40
2023-03-17T18:00:06.629Z,15.40
2023-03-17T18:02:44.926Z,15.30
2023-03-17T18:05:17.262Z,15.20
2023-03-17T18:07:49.887Z,15.10
2023-03-17T18:10:25.701Z,15.10
2023-03-17T18:12:58.227Z,15.00
2023-03-17T18:15:54.406Z,14.90
2023-03-17T18:18:26.902Z,14.80
2023-03-17T18:21:00.226Z,14.80
2023-03-17T18:23:34.375Z,14.70
2023-03-17T18:26:07.393Z,14.70
2023-03-17T18:28:41.373Z,14.70
2023-03-17T18:31:33.946Z,14.70
2023-03-17T18:34:31.725Z,14.70
2023-03-17T18:37:12.506Z,14.60
2023-03-17T18:39:55.539Z,14.60
2023-03-17T18:42:38.817Z,14.50
2023-03-17T18:45:12.223Z,14.50
2023-03-17T18:47:45.101Z,14.40
2023-03-17T18:50:18.616Z,14.30
2023-03-17T18:52:53.403Z,14.20
2023-03-17T18:55:27.251Z,14.10
2023-03-17T18:57:59.509Z,14.10
2023-03-17T19:00:32.489Z,14.10
2023-03-17T19:03:14.384Z,14.00
2023-03-17T19:05:46.995Z,14.00
2023-03-17T19:08:21.487Z,14.00
2023-03-17T19:10:54.173Z,14.00
2023-03-17T19:13:27.512Z,13.90
2023-03-17T19:16:00.118Z,13.90
2023-03-17T19:18:34.442Z,13.80
2023-03-17T19:21:08.661Z,13.80
2023-03-17T19:23:42.316Z,13.80
2023-03-17T19:26:15.583Z,13.70
2023-03-17T19:28:50.009Z,13.70
2023-03-17T19:31:25.047Z,13.70
2023-03-17T19:33:58.698Z,13.70
2023-03-17T19:36:37.296Z,13.60
2023-03-17T19:39:12.781Z,13.50
2023-03-17T19:41:48.977Z,13.40
2023-03-17T19:44:25.855Z,13.40
2023-03-17T19:47:02.035Z,13.30
2023-03-17T19:49:39.608Z,13.30
2023-03-17T19:52:13.293Z,13.20
2023-03-17T19:54:46.757Z,13.10
2023-03-17T19:57:21.471Z,13.10
2023-03-17T19:59:55.127Z,13.00
2023-03-17T20:02:30.595Z,12.90
2023-03-17T20:06:05.133Z,12.80
2023-03-17T20:08:41.602Z,12.80
2023-03-17T20:11:15.618Z,12.70
2023-03-17T20:13:48.729Z,12.70
2023-03-17T20:16:22.598Z,12.60
2023-03-17T20:19:33.287Z,12.50
2023-03-17T20:22:16.826Z,12.50
2023-03-17T20:24:51.922Z,12.40
2023-03-17T20:27:25.632Z,12.30
2023-03-17T20:29:59.960Z,12.30
2023-03-17T20:32:35.976Z,12.20
2023-03-17T20:35:10.709Z,12.20
2023-03-17T20:37:44.492Z,12.10
2023-03-17T20:40:18.749Z,12.10
2023-03-17T20:42:53.270Z,12.10
2023-03-17T20:45:27.204Z,12.00
2023-03-17T20:48:01.091Z,12.00
2023-03-17T20:50:35.763Z,12.00
2023-03-17T20:53:10.841Z,11.90
2023-03-17T20:55:43.867Z,11.90
2023-03-17T20:58:18.876Z,11.90
2023-03-17T21:00:52.064Z,11.90
2023-03-17T21:03:26.136Z,11.90
2023-03-17T21:05:59.423Z,11.90
2023-03-17T21:08:35.215Z,11.90
2023-03-17T21:11:14.782Z,11.90
2023-03-17T21:13:50.611Z,11.90
2023-03-17T21:16:28.328Z,11.90
2023-03-17T21:19:01.825Z,11.90
2023-03-17T21:21:34.591Z,11.90
2023-03-17T21:24:09.666Z,11.80
2023-03-17T21:26:56.025Z,11.90
2023-03-17T21:29:32.828Z,11.90
2023-03-17T21:32:07.658Z,11.90
2023-03-17T21:34:40.216Z,11.90
2023-03-17T21:37:13.361Z,11.90
2023-03-17T21:39:47.820Z,11.90
2023-03-17T21:42:20.726Z,11.80
2023-03-17T21:44:53.943Z,11.80
2023-03-17T21:47:27.476Z,11.80
2023-03-17T21:50:01.342Z,11.80
2023-03-17T21:52:36.380Z,11.80
2023-03-17T21:55:10.376Z,11.80
2023-03-17T21:57:43.707Z,11.80
2023-03-17T22:00:18.269Z,11.80
2023-03-17T22:02:52.885Z,11.80
2023-03-17T22:05:27.305Z,11.70
2023-03-17T22:08:00.150Z,11.70
2023-03-17T22:10:32.986Z,11.70
2023-03-17T22:13:07.168Z,11.70
2023-03-17T22:15:39.652Z,11.70
2023-03-17T22:18:12.347Z,11.60
2023-03-17T22:20:45.822Z,11.50
2023-03-17T22:23:19.673Z,11.50
2023-03-17T22:25:52.577Z,11.50
2023-03-17T22:28:25.919Z,11.50
2023-03-17T22:30:58.902Z,11.50
2023-03-17T22:33:31.595Z,11.50
2023-03-17T22:36:04.822Z,11.40
2023-03-17T22:38:38.686Z,11.40
2023-03-17T22:41:30.576Z,11.40
2023-03-17T22:44:03.986Z,11.40
2023-03-17T22:46:40.994Z,11.40
2023-03-17T22:49:13.613Z,11.40
2023-03-17T22:51:47.876Z,11.40
2023-03-17T22:54:22.179Z,11.40
2023-03-17T22:56:54.251Z,11.50
2023-03-17T22:59:26.376Z,11.50
2023-03-17T23:01:59.143Z,11.60
2023-03-17T23:04:33.661Z,11.70
2023-03-17T23:07:06.781Z,11.80
2023-03-17T23:09:40.547Z,11.90
2023-03-17T23:12:13.864Z,11.90
2023-03-17T23:14:46.776Z,11.90
2023-03-17T23:17:19.639Z,12.00
2023-03-17T23:19:51.856Z,12.10
2023-03-17T23:22:24.193Z,12.20
2023-03-17T23:25:22.847Z,12.30
2023-03-17T23:27:55.645Z,12.30
2023-03-17T23:30:27.764Z,12.40
2023-03-17T23:33:01.229Z,12.40
2023-03-17T23:35:35.635Z,12.50
2023-03-17T23:38:08.746Z,12.50
2023-03-17T23:40:41.392Z,12.40
2023-03-17T23:43:14.754Z,12.40
2023-03-17T23:45:53.276Z,12.40
2023-03-17T23:48:25.404Z,12.40
2023-03-17T23:50:58.322Z,12.40
2023-03-17T23:53:31.869Z,12.40
2023-03-17T23:56:29.971Z,12.50
2023-03-17T23:59:04.146Z,12.50
